createdAt,value
2023-03-04T00:00:30.883Z,54.53
2023-03-04T00:01:02.530Z,57.20
2023-03-04T00:01:34.227Z,56.97
2023-03-04T00:02:05.851Z,54.42
2023-03-04T00:02:37.712Z,55.95
2023-03-04T00:03:11.231Z,58.35
2023-03-04T00:03:43.131Z,58.88
2023-03-04T00:04:14.905Z,61.42
2023-03-04T00:04:46.530Z,58.53
2023-03-04T00:05:18.271Z,58.97
2023-03-04T00:05:50.222Z,56.83
2023-03-04T00:06:21.806Z,61.03
2023-03-04T00:06:53.574Z,63.10
2023-03-04T00:07:25.511Z,58.05
2023-03-04T00:07:57.128Z,59.53
2023-03-04T00:08:28.773Z,63.63
2023-03-04T00:09:00.482Z,56.67
2023-03-04T00:09:32.330Z,60.70
2023-03-04T00:10:05.183Z,56.90
2023-03-04T00:10:36.872Z,58.20
2023-03-04T00:11:08.495Z,60.25
2023-03-04T00:11:40.072Z,56.50
2023-03-04T00:12:12.480Z,57.45
2023-03-04T00:12:44.104Z,61.50
2023-03-04T00:13:17.030Z,58.35
2023-03-04T00:13:48.690Z,63.03
2023-03-04T00:14:20.540Z,65.43
2023-03-04T00:14:52.493Z,59.70
2023-03-04T00:15:24.143Z,50.75
2023-03-04T00:15:55.763Z,61.28
2023-03-04T00:16:27.664Z,59.47
2023-03-04T00:16:59.407Z,57.53
2023-03-04T00:17:31.701Z,62.83
2023-03-04T00:18:03.509Z,58.92
2023-03-04T00:18:35.137Z,54.22
2023-03-04T00:19:07.020Z,56.45
2023-03-04T00:19:39.017Z,60.67
2023-03-04T00:20:11.214Z,61.30
2023-03-04T00:20:43.262Z,59.28
2023-03-04T00:21:14.889Z,56.22
2023-03-04T00:21:46.563Z,58.42
2023-03-04T00:22:18.220Z,59.75
2023-03-04T00:22:49.992Z,60.20
2023-03-04T00:23:21.871Z,61.70
2023-03-04T00:23:53.560Z,60.13
2023-03-04T00:24:25.302Z,65.07
2023-03-04T00:24:56.908Z,64.30
2023-03-04T00:25:28.505Z,63.60
2023-03-04T00:26:00.099Z,64.22
2023-03-04T00:26:32.084Z,66.65
2023-03-04T00:27:03.765Z,68.22
2023-03-04T00:27:35.374Z,59.20
2023-03-04T00:28:06.986Z,60.33
2023-03-04T00:28:39.892Z,62.00
2023-03-04T00:29:11.447Z,67.47
2023-03-04T00:29:43.151Z,64.68
2023-03-04T00:30:14.862Z,69.38
2023-03-04T00:30:46.479Z,67.00
2023-03-04T00:31:18.279Z,70.38
2023-03-04T00:31:49.962Z,67.22
2023-03-04T00:32:21.719Z,69.57
2023-03-04T00:32:53.332Z,65.60
2023-03-04T00:33:25.035Z,66.95
2023-03-04T00:33:56.647Z,67.75
2023-03-04T00:34:28.237Z,61.88
2023-03-04T00:34:59.872Z,63.97
2023-03-04T00:35:31.562Z,70.25
2023-03-04T00:36:04.482Z,68.30
2023-03-04T00:36:36.055Z,66.90
2023-03-04T00:37:07.667Z,68.55
2023-03-04T00:37:39.246Z,64.65
2023-03-04T00:38:10.882Z,69.60
2023-03-04T00:38:42.547Z,61.20
2023-03-04T00:39:14.380Z,62.65
2023-03-04T00:39:46.114Z,59.80
2023-03-04T00:40:18.039Z,63.63
2023-03-04T00:40:49.629Z,63.20
2023-03-04T00:41:21.272Z,65.95
2023-03-04T00:41:52.878Z,63.35
2023-03-04T00:42:24.505Z,64.53
2023-03-04T00:42:56.100Z,62.08
2023-03-04T00:43:27.724Z,59.63
2023-03-04T00:43:59.339Z,59.28
2023-03-04T00:44:30.955Z,63.60
2023-03-04T00:45:02.794Z,59.92
2023-03-04T00:45:34.680Z,59.67
2023-03-04T00:46:07.283Z,57.10
2023-03-04T00:46:38.916Z,61.78
2023-03-04T00:47:10.509Z,60.78
2023-03-04T00:47:42.174Z,58.33
2023-03-04T00:48:14.648Z,60.00
2023-03-04T00:48:46.233Z,61.90
2023-03-04T00:49:17.849Z,57.30
2023-03-04T00:49:49.599Z,59.00
2023-03-04T00:50:21.228Z,56.70
2023-03-04T00:50:54.055Z,58.38
2023-03-04T00:51:25.780Z,59.85
2023-03-04T00:51:57.467Z,55.97
2023-03-04T00:52:29.032Z,55.10
2023-03-04T00:53:01.860Z,55.88
2023-03-04T00:53:33.543Z,54.45
2023-03-04T00:54:05.213Z,58.42
2023-03-04T00:54:36.784Z,56.67
2023-03-04T00:55:09.278Z,58.25
2023-03-04T00:55:40.943Z,55.80
2023-03-04T00:56:13.085Z,56.83
2023-03-04T00:56:44.785Z,59.50
2023-03-04T00:57:16.400Z,59.45
2023-03-04T00:57:48.146Z,56.40
2023-03-04T00:58:19.726Z,55.65
2023-03-04T00:58:51.377Z,58.05
2023-03-04T00:59:23.002Z,56.28
2023-03-04T00:59:54.738Z,54.80
2023-03-04T01:00:26.559Z,55.28
2023-03-04T01:00:58.262Z,61.75
2023-03-04T01:01:30.015Z,54.45
2023-03-04T01:02:01.843Z,54.83
2023-03-04T01:02:33.805Z,59.03
2023-03-04T01:03:05.495Z,54.92
2023-03-04T01:03:37.176Z,53.97
2023-03-04T01:04:08.746Z,53.25
2023-03-04T01:04:41.870Z,58.25
2023-03-04T01:05:13.928Z,58.20
2023-03-04T01:05:45.608Z,58.17
2023-03-04T01:06:17.292Z,56.40
2023-03-04T01:06:48.886Z,51.15
2023-03-04T01:07:20.700Z,53.20
2023-03-04T01:07:52.360Z,56.55
2023-03-04T01:08:24.081Z,55.95
2023-03-04T01:08:55.710Z,54.70
2023-03-04T01:09:27.316Z,51.85
2023-03-04T01:09:59.242Z,56.92
2023-03-04T01:10:31.409Z,53.15
2023-03-04T01:11:03.396Z,53.70
2023-03-04T01:11:35.048Z,54.70
2023-03-04T01:12:07.803Z,51.70
2023-03-04T01:12:41.609Z,57.72
2023-03-04T01:13:13.356Z,54.65
2023-03-04T01:13:45.142Z,53.70
2023-03-04T01:14:16.737Z,52.47
2023-03-04T01:14:48.318Z,51.47
2023-03-04T01:15:19.969Z,50.22
2023-03-04T01:15:51.547Z,53.63
2023-03-04T01:16:23.615Z,53.10
2023-03-04T01:16:55.321Z,49.85
2023-03-04T01:17:27.292Z,55.38
2023-03-04T01:17:58.957Z,50.00
2023-03-04T01:18:30.869Z,49.78
2023-03-04T01:19:02.684Z,51.92
2023-03-04T01:19:34.312Z,53.00
2023-03-04T01:20:07.112Z,49.65
2023-03-04T01:20:38.841Z,50.83
2023-03-04T01:21:10.497Z,46.10
2023-03-04T01:21:42.201Z,47.25
2023-03-04T01:22:15.313Z,50.70
2023-03-04T01:22:46.964Z,47.22
2023-03-04T01:23:18.698Z,46.28
2023-03-04T01:23:50.310Z,50.65
2023-03-04T01:24:22.263Z,50.42
2023-03-04T01:24:53.846Z,49.50
2023-03-04T01:25:25.591Z,49.15
2023-03-04T01:25:57.366Z,45.70
2023-03-04T01:26:28.970Z,48.83
2023-03-04T01:27:00.560Z,44.42
2023-03-04T01:27:32.360Z,47.55
2023-03-04T01:28:04.131Z,48.13
2023-03-04T01:28:36.231Z,48.42
2023-03-04T01:29:07.868Z,47.95
2023-03-04T01:29:39.575Z,46.22
2023-03-04T01:30:12.002Z,43.53
2023-03-04T01:30:43.760Z,42.05
2023-03-04T01:31:15.555Z,44.80
2023-03-04T01:31:47.467Z,45.10
2023-03-04T01:32:19.301Z,44.88
2023-03-04T01:32:51.047Z,43.05
2023-03-04T01:33:22.706Z,45.20
2023-03-04T01:33:54.331Z,41.47
2023-03-04T01:34:25.928Z,42.08
2023-03-04T01:34:57.501Z,44.17
2023-03-04T01:35:29.259Z,43.20
2023-03-04T01:36:00.961Z,45.22
2023-03-04T01:36:32.658Z,43.10
2023-03-04T01:37:04.369Z,39.83
2023-03-04T01:37:36.140Z,42.60
2023-03-04T01:38:07.964Z,44.20
2023-03-04T01:38:39.559Z,43.97
2023-03-04T01:39:11.204Z,41.97
2023-03-04T01:39:42.881Z,43.70
2023-03-04T01:40:14.759Z,45.10
2023-03-04T01:40:46.435Z,41.92
2023-03-04T01:41:23.393Z,41.78
2023-03-04T01:41:55.053Z,44.10
2023-03-04T01:42:30.356Z,38.83
2023-03-04T01:43:02.037Z,40.20
2023-03-04T01:43:36.783Z,42.88
2023-03-04T01:44:10.274Z,40.28
2023-03-04T01:44:42.217Z,42.30
2023-03-04T01:45:17.756Z,40.80
2023-03-04T01:45:51.043Z,39.22
2023-03-04T01:46:23.086Z,42.08
2023-03-04T01:46:56.082Z,41.45
2023-03-04T01:47:31.309Z,42.25
2023-03-04T01:48:03.098Z,40.22
2023-03-04T01:48:37.506Z,43.53
2023-03-04T01:49:12.137Z,40.28
2023-03-04T01:49:43.990Z,40.75
2023-03-04T01:50:28.433Z,38.97
2023-03-04T01:51:03.241Z,42.08
2023-03-04T01:51:34.897Z,41.55
2023-03-04T01:52:06.681Z,42.13
2023-03-04T01:52:40.161Z,39.65
2023-03-04T01:53:25.058Z,39.88
2023-03-04T01:53:57.038Z,38.05
2023-03-04T01:54:29.837Z,41.03
2023-03-04T01:55:01.544Z,41.50
2023-03-04T01:55:33.303Z,38.65
2023-03-04T01:56:28.857Z,40.72
2023-03-04T01:57:00.994Z,40.65
2023-03-04T01:57:35.615Z,40.55
2023-03-04T01:58:10.830Z,40.33
2023-03-04T01:58:42.850Z,39.28
2023-03-04T01:59:17.719Z,41.35
2023-03-04T02:00:27.127Z,45.63
2023-03-04T02:00:59.383Z,41.47
2023-03-04T02:01:31.003Z,42.15
2023-03-04T02:02:02.572Z,43.60
2023-03-04T02:02:34.158Z,40.33
2023-03-04T02:03:11.581Z,42.15
2023-03-04T02:03:43.175Z,43.30
2023-03-04T02:04:17.068Z,39.13
2023-03-04T02:04:48.944Z,40.60
2023-03-04T02:05:22.342Z,41.60
2023-03-04T02:05:54.767Z,40.28
2023-03-04T02:06:26.545Z,41.17
2023-03-04T02:06:59.798Z,41.75
2023-03-04T02:07:31.444Z,39.53
2023-03-04T02:08:04.571Z,38.17
2023-03-04T02:08:36.273Z,38.83
2023-03-04T02:09:08.796Z,38.33
2023-03-04T02:09:40.414Z,39.25
2023-03-04T02:10:12.889Z,39.75
2023-03-04T02:10:45.392Z,39.05
2023-03-04T02:11:17.198Z,36.38
2023-03-04T02:11:50.924Z,38.13
2023-03-04T02:12:22.507Z,39.08
2023-03-04T02:12:54.371Z,38.28
2023-03-04T02:13:26.644Z,38.47
2023-03-04T02:13:58.711Z,39.30
2023-03-04T02:14:30.512Z,38.00
2023-03-04T02:15:02.347Z,37.33
2023-03-04T02:15:34.024Z,38.08
2023-03-04T02:16:05.776Z,39.20
2023-03-04T02:16:37.788Z,37.00
2023-03-04T02:17:13.128Z,39.70
2023-03-04T02:17:44.912Z,37.00
2023-03-04T02:18:19.443Z,34.78
2023-03-04T02:18:51.511Z,38.00
2023-03-04T02:19:42.412Z,35.85
2023-03-04T02:20:36.886Z,37.45
2023-03-04T02:21:23.666Z,36.58
2023-03-04T02:21:55.336Z,36.03
2023-03-04T02:22:27.011Z,33.05
2023-03-04T02:23:01.865Z,37.78
2023-03-04T02:23:39.564Z,37.13
2023-03-04T02:24:11.147Z,36.20
2023-03-04T02:25:05.774Z,37.90
2023-03-04T02:25:47.790Z,38.78
2023-03-04T02:26:26.574Z,36.35
2023-03-04T02:26:58.728Z,40.70
2023-03-04T02:27:30.376Z,36.50
2023-03-04T02:28:02.268Z,39.50
2023-03-04T02:28:34.011Z,38.63
2023-03-04T02:29:05.646Z,38.05
2023-03-04T02:29:37.517Z,41.03
2023-03-04T02:30:12.043Z,39.28
2023-03-04T02:30:43.970Z,37.60
2023-03-04T02:31:27.648Z,39.33
2023-03-04T02:31:59.496Z,36.17
2023-03-04T02:32:31.182Z,40.70
2023-03-04T02:33:02.803Z,38.00
2023-03-04T02:33:34.794Z,41.80
2023-03-04T02:34:19.289Z,36.97
2023-03-04T02:34:51.779Z,37.95
2023-03-04T02:35:23.492Z,40.45
2023-03-04T02:35:55.239Z,37.28
2023-03-04T02:36:27.678Z,39.47
2023-03-04T02:37:00.574Z,38.47
2023-03-04T02:37:32.390Z,38.63
2023-03-04T02:38:04.159Z,40.45
2023-03-04T02:38:35.938Z,37.40
2023-03-04T02:39:15.414Z,40.75
2023-03-04T02:39:49.190Z,42.05
2023-03-04T02:40:28.717Z,34.28
2023-03-04T02:41:00.476Z,40.17
2023-03-04T02:41:32.875Z,39.55
2023-03-04T02:42:04.868Z,42.08
2023-03-04T02:42:36.439Z,39.22
2023-03-04T02:43:11.697Z,37.90
2023-03-04T02:43:46.417Z,42.10
2023-03-04T02:44:25.612Z,37.85
2023-03-04T02:45:01.028Z,38.55
2023-03-04T02:45:36.875Z,37.60
2023-03-04T02:46:12.625Z,39.38
2023-03-04T02:46:44.919Z,37.83
2023-03-04T02:47:19.114Z,41.70
2023-03-04T02:47:50.684Z,39.58
2023-03-04T02:48:24.119Z,44.42
2023-03-04T02:48:55.918Z,38.05
2023-03-04T02:49:29.943Z,39.45
2023-03-04T02:50:01.618Z,39.40
2023-03-04T02:50:41.968Z,43.45
2023-03-04T02:51:13.656Z,40.00
2023-03-04T02:51:45.528Z,40.85
2023-03-04T02:52:23.717Z,37.53
2023-03-04T02:52:55.407Z,38.67
2023-03-04T02:53:27.313Z,35.10
2023-03-04T02:53:59.043Z,39.28
2023-03-04T02:54:31.102Z,39.90
2023-03-04T02:55:02.765Z,38.28
2023-03-04T02:55:35.018Z,41.03
2023-03-04T02:56:07.090Z,40.25
2023-03-04T02:56:38.658Z,41.75
2023-03-04T02:57:12.991Z,38.70
2023-03-04T02:57:44.630Z,40.28
2023-03-04T02:58:16.245Z,38.17
2023-03-04T02:58:47.888Z,39.97
2023-03-04T02:59:20.878Z,40.72
2023-03-04T02:59:52.451Z,37.05
2023-03-04T03:00:24.311Z,42.28
2023-03-04T03:00:56.016Z,39.75
2023-03-04T03:01:30.012Z,42.63
2023-03-04T03:02:02.022Z,43.15
2023-03-04T03:02:34.077Z,36.65
2023-03-04T03:03:06.624Z,38.83
2023-03-04T03:03:38.239Z,42.65
2023-03-04T03:04:10.103Z,41.60
2023-03-04T03:04:41.896Z,36.03
2023-03-04T03:05:13.766Z,44.38
2023-03-04T03:05:45.778Z,42.88
2023-03-04T03:06:17.397Z,40.30
2023-03-04T03:06:49.543Z,38.97
2023-03-04T03:07:21.142Z,39.08
2023-03-04T03:07:52.771Z,41.55
2023-03-04T03:08:24.496Z,38.78
2023-03-04T03:08:56.130Z,37.65
2023-03-04T03:09:27.773Z,39.10
2023-03-04T03:09:59.343Z,39.25
2023-03-04T03:10:31.262Z,38.33
2023-03-04T03:11:03.013Z,37.85
2023-03-04T03:11:35.141Z,39.38
2023-03-04T03:12:07.054Z,42.75
2023-03-04T03:12:38.741Z,36.30
2023-03-04T03:13:10.336Z,36.00
2023-03-04T03:13:42.019Z,39.47
2023-03-04T03:14:13.748Z,37.75
2023-03-04T03:14:45.388Z,35.47
2023-03-04T03:15:18.090Z,38.30
2023-03-04T03:15:50.202Z,38.03
2023-03-04T03:16:22.008Z,35.03
2023-03-04T03:16:53.693Z,39.75
2023-03-04T03:17:25.325Z,39.45
2023-03-04T03:17:57.537Z,40.60
2023-03-04T03:18:29.165Z,39.95
2023-03-04T03:19:00.875Z,36.17
2023-03-04T03:19:32.578Z,36.10
2023-03-04T03:20:05.063Z,36.08
2023-03-04T03:20:37.298Z,37.40
2023-03-04T03:21:08.923Z,37.15
2023-03-04T03:21:40.642Z,37.13
2023-03-04T03:22:12.420Z,40.13
2023-03-04T03:22:44.409Z,39.22
2023-03-04T03:23:18.113Z,34.15
2023-03-04T03:23:49.964Z,32.88
2023-03-04T03:24:21.640Z,40.75
2023-03-04T03:24:53.297Z,36.58
2023-03-04T03:25:24.926Z,36.88
2023-03-04T03:25:56.520Z,33.65
2023-03-04T03:26:28.130Z,37.17
2023-03-04T03:26:59.796Z,37.22
2023-03-04T03:27:31.637Z,37.90
2023-03-04T03:28:03.435Z,37.58
2023-03-04T03:28:35.662Z,37.45
2023-03-04T03:29:07.242Z,36.33
2023-03-04T03:29:38.864Z,35.58
2023-03-04T03:30:13.374Z,38.75
2023-03-04T03:30:44.986Z,36.30
2023-03-04T03:31:16.853Z,38.17
2023-03-04T03:31:48.473Z,44.22
2023-03-04T03:32:20.206Z,37.63
2023-03-04T03:32:51.926Z,37.92
2023-03-04T03:33:23.944Z,37.45
2023-03-04T03:33:55.654Z,34.60
2023-03-04T03:34:27.451Z,38.05
2023-03-04T03:34:59.115Z,37.55
2023-03-04T03:35:30.870Z,36.67
2023-03-04T03:36:02.851Z,36.78
2023-03-04T03:36:34.574Z,36.50
2023-03-04T03:37:06.220Z,37.22
2023-03-04T03:37:38.462Z,34.35
2023-03-04T03:38:10.193Z,35.10
2023-03-04T03:38:41.885Z,41.30
2023-03-04T03:39:15.623Z,36.47
2023-03-04T03:39:47.264Z,35.00
2023-03-04T03:40:18.953Z,35.72
2023-03-04T03:40:50.549Z,34.45
2023-03-04T03:41:22.143Z,33.20
2023-03-04T03:41:53.742Z,38.78
2023-03-04T03:42:25.440Z,35.05
2023-03-04T03:42:57.059Z,35.65
2023-03-04T03:43:28.819Z,34.88
2023-03-04T03:44:00.590Z,37.83
2023-03-04T03:44:32.234Z,37.47
2023-03-04T03:45:04.283Z,34.75
2023-03-04T03:45:35.983Z,36.33
2023-03-04T03:46:07.675Z,35.63
2023-03-04T03:46:39.311Z,32.20
2023-03-04T03:47:10.953Z,32.50
2023-03-04T03:47:42.589Z,37.85
2023-03-04T03:48:14.183Z,34.08
2023-03-04T03:48:46.051Z,36.42
2023-03-04T03:49:17.726Z,33.53
2023-03-04T03:49:49.830Z,33.67
2023-03-04T03:50:21.698Z,34.88
2023-03-04T03:50:53.314Z,31.02
2023-03-04T03:51:25.003Z,32.05
2023-03-04T03:51:56.633Z,34.15
2023-03-04T03:52:28.220Z,33.75
2023-03-04T03:52:59.832Z,37.90
2023-03-04T03:53:31.503Z,31.73
2023-03-04T03:54:03.147Z,30.58
2023-03-04T03:54:34.841Z,33.80
2023-03-04T03:55:06.886Z,33.05
2023-03-04T03:55:39.176Z,31.85
2023-03-04T03:56:10.853Z,31.08
2023-03-04T03:56:42.486Z,30.70
2023-03-04T03:57:14.102Z,30.88
2023-03-04T03:57:45.795Z,32.58
2023-03-04T03:58:17.378Z,33.42
2023-03-04T03:58:48.979Z,30.90
2023-03-04T03:59:20.675Z,32.22
2023-03-04T03:59:52.286Z,28.63
2023-03-04T04:00:24.006Z,34.70
2023-03-04T04:00:58.172Z,33.40
2023-03-04T04:01:30.167Z,30.52
2023-03-04T04:02:01.971Z,30.90
2023-03-04T04:02:33.799Z,29.30
2023-03-04T04:03:05.900Z,31.55
2023-03-04T04:03:37.620Z,28.30
2023-03-04T04:04:09.248Z,30.13
2023-03-04T04:04:40.831Z,31.95
2023-03-04T04:05:12.952Z,31.08
2023-03-04T04:05:44.682Z,27.25
2023-03-04T04:06:16.503Z,29.00
2023-03-04T04:06:48.125Z,30.77
2023-03-04T04:07:19.711Z,30.65
2023-03-04T04:07:53.768Z,30.73
2023-03-04T04:08:25.684Z,27.70
2023-03-04T04:08:57.418Z,28.65
2023-03-04T04:09:29.019Z,29.63
2023-03-04T04:10:00.808Z,28.75
2023-03-04T04:10:32.469Z,27.02
2023-03-04T04:11:04.254Z,28.45
2023-03-04T04:11:35.942Z,27.98
2023-03-04T04:12:07.923Z,29.33
2023-03-04T04:12:39.603Z,29.35
2023-03-04T04:13:11.655Z,30.42
2023-03-04T04:13:43.266Z,29.70
2023-03-04T04:14:15.155Z,28.88
2023-03-04T04:14:46.875Z,27.55
2023-03-04T04:15:18.588Z,30.25
2023-03-04T04:15:52.262Z,30.70
2023-03-04T04:16:23.942Z,28.13
2023-03-04T04:16:55.562Z,25.63
2023-03-04T04:17:27.220Z,28.90
2023-03-04T04:17:58.796Z,30.02
2023-03-04T04:18:30.444Z,27.80
2023-03-04T04:19:02.024Z,28.85
2023-03-04T04:19:33.724Z,27.98
2023-03-04T04:20:08.010Z,25.70
2023-03-04T04:20:39.648Z,30.77
2023-03-04T04:21:11.498Z,26.13
2023-03-04T04:21:43.104Z,30.35
2023-03-04T04:22:18.119Z,27.55
2023-03-04T04:22:49.870Z,26.35
2023-03-04T04:23:21.970Z,27.60
2023-03-04T04:23:53.593Z,28.50
2023-03-04T04:24:25.328Z,29.00
2023-03-04T04:24:56.958Z,28.42
2023-03-04T04:25:28.989Z,27.63
2023-03-04T04:26:00.930Z,25.58
2023-03-04T04:26:32.622Z,27.40
2023-03-04T04:27:04.563Z,30.05
2023-03-04T04:27:36.621Z,27.50
2023-03-04T04:28:08.196Z,27.25
2023-03-04T04:28:39.909Z,27.88
2023-03-04T04:29:14.216Z,26.17
2023-03-04T04:29:45.965Z,27.00
2023-03-04T04:30:17.733Z,28.55
2023-03-04T04:30:49.389Z,28.75
2023-03-04T04:31:21.039Z,25.83
2023-03-04T04:31:52.672Z,28.67
2023-03-04T04:32:24.315Z,26.20
2023-03-04T04:32:56.041Z,25.42
2023-03-04T04:33:27.668Z,26.20
2023-03-04T04:33:59.280Z,27.08
2023-03-04T04:34:31.017Z,27.77
2023-03-04T04:35:02.638Z,26.85
2023-03-04T04:35:36.675Z,27.80
2023-03-04T04:36:13.260Z,28.00
2023-03-04T04:36:44.984Z,27.85
2023-03-04T04:37:17.005Z,26.63
2023-03-04T04:37:48.635Z,27.95
2023-03-04T04:38:20.286Z,26.42
2023-03-04T04:38:51.880Z,27.70
2023-03-04T04:39:23.630Z,27.92
2023-03-04T04:39:55.698Z,26.05
2023-03-04T04:40:27.365Z,27.00
2023-03-04T04:41:00.035Z,33.50
2023-03-04T04:41:37.524Z,24.65
2023-03-04T04:42:10.944Z,27.95
2023-03-04T04:42:42.981Z,27.67
2023-03-04T04:43:14.638Z,27.95
2023-03-04T04:43:46.583Z,26.90
2023-03-04T04:44:18.219Z,27.88
2023-03-04T04:44:49.938Z,25.35
2023-03-04T04:45:21.701Z,26.90
2023-03-04T04:45:53.437Z,26.33
2023-03-04T04:46:26.155Z,26.63
2023-03-04T04:46:57.774Z,23.92
2023-03-04T04:47:29.403Z,27.08
2023-03-04T04:48:01.075Z,25.30
2023-03-04T04:48:32.822Z,26.88
2023-03-04T04:49:05.401Z,24.92
2023-03-04T04:49:37.018Z,26.30
2023-03-04T04:50:09.827Z,26.13
2023-03-04T04:50:41.463Z,27.33
2023-03-04T04:51:13.499Z,27.38
2023-03-04T04:51:45.521Z,24.50
2023-03-04T04:52:17.114Z,26.98
2023-03-04T04:52:48.820Z,25.60
2023-03-04T04:53:20.421Z,26.58
2023-03-04T04:53:52.043Z,25.80
2023-03-04T04:54:23.889Z,28.33
2023-03-04T04:54:55.535Z,26.05
2023-03-04T04:55:27.963Z,25.88
2023-03-04T04:55:59.544Z,26.25
2023-03-04T04:56:31.466Z,26.08
2023-03-04T04:57:03.082Z,24.95
2023-03-04T04:57:35.211Z,25.52
2023-03-04T04:58:07.994Z,27.20
2023-03-04T04:58:39.681Z,27.10
2023-03-04T04:59:12.889Z,23.92
2023-03-04T04:59:44.474Z,25.65
2023-03-04T05:00:18.197Z,24.58
2023-03-04T05:00:49.832Z,25.05
2023-03-04T05:01:21.616Z,22.65
2023-03-04T05:01:53.266Z,27.10
2023-03-04T05:02:24.871Z,23.77
2023-03-04T05:02:56.511Z,23.67
2023-03-04T05:03:28.213Z,27.35
2023-03-04T05:04:00.093Z,28.65
2023-03-04T05:04:31.830Z,26.17
2023-03-04T05:05:05.069Z,32.90
2023-03-04T05:05:36.771Z,25.33
2023-03-04T05:06:09.862Z,26.48
2023-03-04T05:06:41.505Z,25.85
2023-03-04T05:07:13.124Z,26.42
2023-03-04T05:07:44.749Z,26.70
2023-03-04T05:08:16.382Z,25.95
2023-03-04T05:08:48.322Z,25.52
2023-03-04T05:09:20.984Z,25.38
2023-03-04T05:09:54.910Z,25.70
2023-03-04T05:10:26.484Z,25.65
2023-03-04T05:10:58.340Z,23.45
2023-03-04T05:11:30.160Z,25.70
2023-03-04T05:12:01.775Z,25.73
2023-03-04T05:12:33.479Z,26.90
2023-03-04T05:13:05.060Z,27.52
2023-03-04T05:13:36.825Z,25.50
2023-03-04T05:14:08.686Z,24.17
2023-03-04T05:14:40.361Z,26.20
2023-03-04T05:15:12.160Z,24.80
2023-03-04T05:15:43.911Z,25.88
2023-03-04T05:16:17.296Z,24.20
2023-03-04T05:16:49.072Z,25.83
2023-03-04T05:17:20.693Z,23.75
2023-03-04T05:17:52.280Z,28.55
2023-03-04T05:18:25.912Z,23.15
2023-03-04T05:18:57.522Z,27.15
2023-03-04T05:19:29.423Z,22.27
2023-03-04T05:20:01.169Z,26.70
2023-03-04T05:20:32.769Z,26.90
2023-03-04T05:21:04.869Z,24.55
2023-03-04T05:21:36.497Z,27.67
2023-03-04T05:22:08.381Z,25.30
2023-03-04T05:22:40.048Z,26.20
2023-03-04T05:23:11.617Z,25.00
2023-03-04T05:23:44.186Z,28.13
2023-03-04T05:24:15.926Z,24.75
2023-03-04T05:24:47.630Z,25.42
2023-03-04T05:25:19.222Z,26.75
2023-03-04T05:25:51.297Z,29.52
2023-03-04T05:26:22.903Z,23.70
2023-03-04T05:26:54.496Z,27.83
2023-03-04T05:27:26.111Z,24.45
2023-03-04T05:27:58.025Z,25.15
2023-03-04T05:28:29.933Z,26.48
2023-03-04T05:29:01.503Z,26.63
2023-03-04T05:29:33.170Z,31.30
2023-03-04T05:30:05.391Z,26.35
2023-03-04T05:30:37.032Z,24.40
2023-03-04T05:31:09.176Z,28.05
2023-03-04T05:31:40.832Z,24.60
2023-03-04T05:32:12.579Z,26.08
2023-03-04T05:32:44.169Z,26.52
2023-03-04T05:33:17.132Z,29.00
2023-03-04T05:33:49.106Z,29.83
2023-03-04T05:34:20.733Z,27.02
2023-03-04T05:34:52.303Z,27.05
2023-03-04T05:35:23.906Z,27.35
2023-03-04T05:35:56.385Z,28.10
2023-03-04T05:36:28.167Z,28.25
2023-03-04T05:36:59.735Z,30.65
2023-03-04T05:37:31.307Z,28.23
2023-03-04T05:38:04.993Z,31.10
2023-03-04T05:38:37.233Z,30.50
2023-03-04T05:39:08.916Z,28.58
2023-03-04T05:39:40.568Z,30.25
2023-03-04T05:40:12.866Z,29.33
2023-03-04T05:40:45.169Z,27.63
2023-03-04T05:41:19.026Z,29.80
2023-03-04T05:41:50.615Z,28.58
2023-03-04T05:42:22.313Z,28.75
2023-03-04T05:42:53.946Z,29.30
2023-03-04T05:43:26.766Z,29.25
2023-03-04T05:43:58.448Z,26.95
2023-03-04T05:44:30.018Z,35.22
2023-03-04T05:45:01.631Z,31.20
2023-03-04T05:45:33.862Z,29.40
2023-03-04T05:46:05.720Z,32.17
2023-03-04T05:46:37.457Z,33.28
2023-03-04T05:47:09.059Z,30.98
2023-03-04T05:47:40.746Z,31.40
2023-03-04T05:48:12.487Z,29.08
2023-03-04T05:48:45.050Z,33.55
2023-03-04T05:49:16.719Z,34.10
2023-03-04T05:49:48.325Z,31.75
2023-03-04T05:50:20.855Z,34.30
2023-03-04T05:50:57.691Z,34.00
2023-03-04T05:51:29.398Z,31.40
2023-03-04T05:52:00.993Z,33.50
2023-03-04T05:52:32.643Z,34.38
2023-03-04T05:53:04.226Z,34.08
2023-03-04T05:53:37.038Z,34.65
2023-03-04T05:54:09.024Z,33.75
2023-03-04T05:54:40.654Z,36.78
2023-03-04T05:55:12.295Z,32.70
2023-03-04T05:55:47.520Z,37.80
2023-03-04T05:56:20.535Z,34.65
2023-03-04T05:56:52.169Z,35.15
2023-03-04T05:57:23.780Z,36.80
2023-03-04T05:57:55.765Z,34.60
2023-03-04T05:58:27.373Z,39.75
2023-03-04T05:58:59.691Z,34.75
2023-03-04T05:59:31.400Z,36.15
2023-03-04T06:00:05.635Z,39.58
2023-03-04T06:00:37.452Z,40.03
2023-03-04T06:01:09.791Z,37.85
2023-03-04T06:01:41.481Z,36.78
2023-03-04T06:02:13.210Z,36.78
2023-03-04T06:02:44.920Z,37.95
2023-03-04T06:03:19.520Z,40.55
2023-03-04T06:03:51.286Z,40.15
2023-03-04T06:04:23.031Z,36.05
2023-03-04T06:04:54.693Z,39.78
2023-03-04T06:05:26.431Z,36.65
2023-03-04T06:05:58.771Z,39.55
2023-03-04T06:06:30.421Z,42.25
2023-03-04T06:07:02.004Z,39.13
2023-03-04T06:07:33.970Z,41.53
2023-03-04T06:08:05.607Z,40.13
2023-03-04T06:08:37.354Z,39.25
2023-03-04T06:09:08.978Z,35.92
2023-03-04T06:09:40.549Z,41.38
2023-03-04T06:10:14.989Z,40.90
2023-03-04T06:10:46.643Z,35.38
2023-03-04T06:11:18.229Z,34.63
2023-03-04T06:11:49.884Z,41.17
2023-03-04T06:12:22.060Z,40.40
2023-03-04T06:12:53.696Z,37.10
2023-03-04T06:13:25.843Z,39.67
2023-03-04T06:13:57.496Z,44.00
2023-03-04T06:14:29.193Z,39.47
2023-03-04T06:15:00.891Z,46.03
2023-03-04T06:15:33.071Z,40.00
2023-03-04T06:16:05.228Z,38.85
2023-03-04T06:16:36.909Z,39.97
2023-03-04T06:17:08.740Z,42.45
2023-03-04T06:17:42.318Z,42.15
2023-03-04T06:18:14.082Z,37.63
2023-03-04T06:18:45.672Z,37.85
2023-03-04T06:19:17.350Z,41.72
2023-03-04T06:19:48.990Z,39.05
2023-03-04T06:20:20.654Z,43.28
2023-03-04T06:20:56.637Z,41.00
2023-03-04T06:21:28.286Z,37.72
2023-03-04T06:22:00.118Z,40.25
2023-03-04T06:22:31.851Z,41.45
2023-03-04T06:23:04.670Z,40.78
2023-03-04T06:23:36.276Z,43.03
2023-03-04T06:24:07.963Z,42.08
2023-03-04T06:24:39.602Z,44.97
2023-03-04T06:25:11.200Z,39.22
2023-03-04T06:25:42.897Z,41.75
2023-03-04T06:26:15.717Z,39.30
2023-03-04T06:26:47.455Z,41.28
2023-03-04T06:27:19.052Z,37.13
2023-03-04T06:27:51.009Z,43.72
2023-03-04T06:28:23.367Z,40.97
2023-03-04T06:28:57.179Z,44.13
2023-03-04T06:29:29.140Z,41.80
2023-03-04T06:30:01.770Z,40.65
2023-03-04T06:30:34.274Z,40.47
2023-03-04T06:31:05.967Z,40.47
2023-03-04T06:31:37.764Z,41.85
2023-03-04T06:32:09.520Z,45.83
2023-03-04T06:32:44.402Z,40.67
2023-03-04T06:33:16.091Z,45.47
2023-03-04T06:33:47.650Z,44.80
2023-03-04T06:34:19.408Z,43.47
2023-03-04T06:34:51.146Z,42.80
2023-03-04T06:35:23.052Z,47.42
2023-03-04T06:35:56.152Z,46.65
2023-03-04T06:36:27.965Z,45.03
2023-03-04T06:36:59.915Z,46.00
2023-03-04T06:37:31.491Z,43.72
2023-03-04T06:38:03.109Z,45.40
2023-03-04T06:38:35.271Z,47.35
2023-03-04T06:39:07.482Z,44.40
2023-03-04T06:39:39.058Z,46.60
2023-03-04T06:40:11.377Z,46.05
2023-03-04T06:40:43.179Z,45.70
2023-03-04T06:41:14.952Z,43.85
2023-03-04T06:41:46.605Z,43.40
2023-03-04T06:42:18.426Z,47.90
2023-03-04T06:42:50.044Z,45.25
2023-03-04T06:43:21.957Z,47.78
2023-03-04T06:43:54.683Z,43.88
2023-03-04T06:44:26.336Z,42.50
2023-03-04T06:44:57.938Z,45.17
2023-03-04T06:45:29.603Z,43.40
2023-03-04T06:46:01.192Z,44.28
2023-03-04T06:46:35.931Z,45.08
2023-03-04T06:47:08.285Z,45.70
2023-03-04T06:47:40.529Z,45.15
2023-03-04T06:48:13.756Z,44.55
2023-03-04T06:48:45.372Z,43.85
2023-03-04T06:49:17.067Z,42.55
2023-03-04T06:49:48.762Z,43.28
2023-03-04T06:50:20.585Z,43.08
2023-03-04T06:50:52.332Z,43.83
2023-03-04T06:51:23.920Z,43.22
2023-03-04T06:51:55.958Z,43.33
2023-03-04T06:52:27.582Z,44.78
2023-03-04T06:52:59.203Z,42.45
2023-03-04T06:53:30.845Z,46.50
2023-03-04T06:54:02.973Z,39.40
2023-03-04T06:54:34.540Z,40.42
2023-03-04T06:55:07.135Z,43.13
2023-03-04T06:55:38.796Z,43.72
2023-03-04T06:56:12.941Z,46.00
2023-03-04T06:56:44.542Z,43.35
2023-03-04T06:57:16.354Z,45.00